Spaceon02064 — ASD — position and weather

sailwx.info

Track history (hours):
 
Tides and Currents Weather Stations Pressure Air Temp Water Temp Dewpoint Dewpoint Depression Visibility Wind Speed Wind Dir Waves Ship Positions

Spaceon02064

Last reported at 2014-Oct-21 03:33 UTC. Time now 2014-Oct-21 03:49 UTC.
Position N 31°18' E 121°34'.

Length 6 m.

Type: Ship. MMSI: 200902064.

Date/timePositionNaut miles runAvg speedWind from/ knotsBaromVisibWave heightAir tempDewpointWater temp
2014-Oct-21 03:33N 31°18' E 121°34'0 0.0
2014-Oct-21 02:27N 31°18' E 121°34'0 0.0
2014-Oct-21 01:33N 31°18' E 121°34'62383.5
2014-Oct-21 01:23N 32°02' E 120°43'6271.3
2014-Oct-21 00:31N 31°18' E 121°34'1349.1
2014-Oct-21 00:15N 31°29' E 121°27'1317.7
2014-Oct-20 23:32N 31°18' E 121°34'81540.6
2014-Oct-20 23:31N 31°25' E 121°31'7 6.5
2014-Oct-20 22:30N 31°19' E 121°34'2 3.8
2014-Oct-20 22:05N 31°18' E 121°34'0 0.0
2014-Oct-20 20:10N 31°18' E 121°34'0 0.0
2014-Oct-20 18:28N 31°18' E 121°34'0 0.0
2014-Oct-20 17:04N 31°18' E 121°34'0 0.1
2014-Oct-20 16:32N 31°18' E 121°34'0 0.0
2014-Oct-20 15:32N 31°18' E 121°34'62731.5
2014-Oct-20 15:27N 32°04' E 120°45'6256.7
2014-Oct-20 14:22N 31°18' E 121°34'62386.0
2014-Oct-20 14:12N 32°04' E 120°45'6295.3
2014-Oct-20 13:33N 31°18' E 121°34'0 0.0
2014-Oct-20 12:22N 31°18' E 121°34'0 0.1
2014-Oct-20 11:33N 31°18' E 121°34'0 0.0
2014-Oct-20 10:14N 31°18' E 121°34'1012.0
2014-Oct-20 09:24N 31°27' E 121°30'1037.8
2014-Oct-20 09:08N 31°18' E 121°34'610.2
2014-Oct-20 08:31N 31°23' E 121°30'4223359.3
2014-Oct-20 08:24N 24°47' E 118°46'417207.9
2014-Oct-20 06:23N 31°17' E 121°34'0 0.0
2014-Oct-20 04:12N 31°17' E 121°34'0 0.0
2014-Oct-20 03:22N 31°17' E 121°34'0 0.0
2014-Oct-20 02:32N 31°17' E 121°34'0 0.0
2014-Oct-20 01:16N 31°17' E 121°34'0 0.0
2014-Oct-20 00:08N 31°17' E 121°34'1220.4
2014-Oct-19 23:33N 31°28' E 121°28'5 4.7
2014-Oct-19 22:33N 31°23' E 121°30'7 6.7
2014-Oct-19 21:33N 31°17' E 121°34'386120.4
2014-Oct-19 18:21N 37°43' E 121°14'2 2.1
2014-Oct-19 17:33N 37°42' E 121°15'3451867.3
2014-Oct-19 17:22N 31°60' E 120°23'344423.3
2014-Oct-19 16:33N 37°41' E 121°19'34143819.5
2014-Oct-19 16:33N 32°02' E 120°28'340339.8
2014-Oct-19 15:33N 37°40' E 121°24'4 3.5
2014-Oct-19 14:33N 37°39' E 121°28'3 3.3
2014-Oct-19 13:32N 37°40' E 121°32'2 2.2
2014-Oct-19 12:33N 37°42' E 121°31'4 4.2
2014-Oct-19 11:31N 37°46' E 121°28'0 0.4
2014-Oct-19 10:33N 37°46' E 121°28'9 8.8
2014-Oct-19 09:33N 37°39' E 121°21'9 9.3
2014-Oct-19 08:33N 37°42' E 121°10'3851433.1
2014-Oct-19 08:17N 31°17' E 121°34'385470.8
2014-Oct-19 07:28N 37°42' E 121°09'385420.9
2014-Oct-19 06:33N 31°17' E 121°34'2 2.4
2014-Oct-19 05:33N 31°19' E 121°33'5 4.7
2014-Oct-19 04:33N 31°23' E 121°30'6 6.0
2014-Oct-19 03:29N 31°22' E 121°38'3436.8
2014-Oct-19 02:33N 31°44' E 121°06'35884.3
2014-Oct-18 22:19N 37°42' E 121°09'0 0.0
2014-Oct-18 21:18N 37°42' E 121°09'5 6.0
2014-Oct-18 20:32N 37°42' E 121°15'3 3.2
2014-Oct-18 19:33N 37°41' E 121°18'3 3.3
2014-Oct-18 18:33N 37°41' E 121°22'3 3.3
2014-Oct-18 17:33N 37°40' E 121°26'3 2.8
2014-Oct-18 16:33N 37°41' E 121°29'4 3.9
2014-Oct-18 15:32N 37°45' E 121°29'6 5.7
2014-Oct-18 14:33N 37°51' E 121°28'3 2.8
2014-Oct-18 13:30N 37°49' E 121°31'3 3.5
2014-Oct-18 12:31N 37°48' E 121°35'1 0.7
2014-Oct-18 11:33N 37°48' E 121°35'3936905.3
2014-Oct-18 11:30N 31°14' E 121°29'393412.9
2014-Oct-18 10:33N 37°48' E 121°30'3921577.0
2014-Oct-18 10:18N 31°15' E 121°33'392528.0
2014-Oct-18 09:33N 37°48' E 121°25'3911021.4
2014-Oct-18 09:10N 31°17' E 121°34'390623.4
2014-Oct-18 08:33N 37°47' E 121°18'9 9.2
2014-Oct-18 07:33N 37°42' E 121°09'3851713.5
2014-Oct-18 07:19N 31°17' E 121°34'4 0.5
2014-Oct-18 00:05N 31°15' E 121°31'388148.7
2014-Oct-17 21:29N 37°42' E 121°10'6 6.6
2014-Oct-17 20:30N 37°45' E 121°18'3 3.6
2014-Oct-17 19:33N 37°44' E 121°22'2 1.5
2014-Oct-17 18:33N 37°42' E 121°23'3 3.5
2014-Oct-17 17:33N 37°41' E 121°27'2 2.4
2014-Oct-17 16:33N 37°41' E 121°24'2 1.7
2014-Oct-17 15:33N 37°41' E 121°26'1 0.5
2014-Oct-17 14:33N 37°40' E 121°27'1 0.5
2014-Oct-17 13:34N 37°40' E 121°27'3 2.8
2014-Oct-17 12:33N 37°40' E 121°24'3 3.3
2014-Oct-17 11:34N 37°38' E 121°27'1 0.7
2014-Oct-17 10:33N 37°38' E 121°28'7 6.9
2014-Oct-17 09:34N 37°40' E 121°20'9 8.1
2014-Oct-17 08:27N 37°42' E 121°09'34048.4
2014-Oct-17 01:26N 32°02' E 120°44'34053.5
2014-Oct-16 19:04N 37°42' E 121°09'3 5.0
2014-Oct-16 18:27N 37°43' E 121°12'3 3.1
2014-Oct-16 17:33N 37°43' E 121°15'3 3.0
2014-Oct-16 16:33N 37°42' E 121°19'3 3.1
2014-Oct-16 15:33N 37°41' E 121°23'3 3.0
2014-Oct-16 14:33N 37°40' E 121°26'3 3.1
2014-Oct-16 13:33N 37°40' E 121°30'3 3.1
2014-Oct-16 12:33N 37°39' E 121°34'1 1.2
2014-Oct-16 11:33N 37°39' E 121°33'4 4.0
2014-Oct-16 10:33N 37°39' E 121°28'47215873.9
2014-Oct-16 10:31N 29°48' E 122°05'475477.7
2014-Oct-16 09:32N 37°42' E 121°23'3611183.7
2014-Oct-16 09:13N 31°41' E 121°11'361538.8
2014-Oct-16 08:33N 37°42' E 121°11'4655309.4
2014-Oct-16 08:28N 29°59' E 122°02'465477.7
2014-Oct-16 07:30N 37°42' E 121°09'0 0.0
2014-Oct-16 06:15N 37°42' E 121°09'0 0.0
2014-Oct-16 05:12N 37°42' E 121°09'0 0.0
2014-Oct-16 04:33N 37°42' E 121°09'38748.3
2014-Oct-15 20:32N 31°15' E 121°30'5 4.1
2014-Oct-15 19:13N 31°20' E 121°33'3 4.6
2014-Oct-15 18:32N 31°21' E 121°30'4 3.4
2014-Oct-15 17:28N 31°25' E 121°30'5 5.4
2014-Oct-15 16:32N 31°28' E 121°26'17 2.3
2014-Oct-15 09:29N 31°40' E 121°12'6 5.8
2014-Oct-15 08:22N 31°44' E 121°06'36 7.4
2014-Oct-15 03:32N 32°02' E 120°30'8 7.8
2014-Oct-15 02:32N 31°59' E 120°21'34854.9
2014-Oct-14 20:12N 37°44' E 121°12'2 2.0
2014-Oct-14 19:26N 37°45' E 121°14'3 3.9
2014-Oct-14 18:32N 37°44' E 121°18'4 3.7
2014-Oct-14 17:33N 37°43' E 121°22'4 3.6
2014-Oct-14 16:33N 37°42' E 121°27'3 3.3
2014-Oct-14 15:33N 37°41' E 121°31'343340.6
2014-Oct-14 14:33N 32°02' E 120°27'34331654.9
2014-Oct-14 14:32N 37°40' E 121°35'4 3.5
2014-Oct-14 13:32N 37°40' E 121°39'4 3.8
2014-Oct-14 12:33N 37°40' E 121°35'4 3.9
2014-Oct-14 11:33N 37°41' E 121°30'4 3.9
2014-Oct-14 10:33N 37°41' E 121°25'4 3.8
2014-Oct-14 09:31N 37°41' E 121°20'9 8.2
2014-Oct-14 08:27N 37°42' E 121°09'373123.6
2014-Oct-14 05:26N 31°29' E 121°27'4 4.1
2014-Oct-14 04:29N 31°26' E 121°31'1 1.3
2014-Oct-14 03:33N 31°25' E 121°32'4 3.5
2014-Oct-14 02:32N 31°22' E 121°30'6 5.9
2014-Oct-14 01:33N 31°17' E 121°34'5 4.8
2014-Oct-14 00:31N 31°13' E 121°30'413129.3
2014-Oct-13 21:20N 24°47' E 118°46'0 0.2
2014-Oct-13 20:26N 24°47' E 118°46'11 1.6
2014-Oct-13 13:31N 24°47' E 118°58'42015.5
2014-Oct-12 10:26N 31°21' E 121°43'6968.8
2014-Oct-12 09:26N 32°01' E 120°37'6966.6
2014-Oct-12 08:24N 31°21' E 121°43'3 0.4
2014-Oct-12 01:31N 31°22' E 121°40'8 8.2
2014-Oct-12 00:33N 31°24' E 121°32'7165.3
2014-Oct-11 23:29N 31°59' E 120°19'60530.0
2014-Oct-11 23:22N 31°32' E 121°23'5667.6
2014-Oct-11 22:32N 32°02' E 120°27'8 7.8
2014-Oct-11 21:32N 32°00' E 120°36'44221.6
2014-Oct-11 21:20N 31°39' E 121°21'364466.2
2014-Oct-11 20:33N 37°42' E 121°11'364365.8
2014-Oct-11 19:34N 31°39' E 121°21'36425701.5
2014-Oct-11 19:33N 37°43' E 121°20'1 1.2
2014-Oct-11 18:33N 37°43' E 121°21'364327634.6
2014-Oct-11 18:33N 31°39' E 121°21'1882.2
2014-Oct-11 18:20N 31°47' E 121°01'1823.5
2014-Oct-11 17:33N 31°39' E 121°21'36346659.0
2014-Oct-11 17:32N 37°41' E 121°26'4 3.9
2014-Oct-11 16:33N 37°40' E 121°31'3 3.5
2014-Oct-11 15:33N 37°38' E 121°35'3603264.6
2014-Oct-11 15:27N 31°39' E 121°21'361405.5
2014-Oct-11 14:33N 37°40' E 121°33'3615581.1
2014-Oct-11 14:29N 31°39' E 121°21'0 0.0
2014-Oct-11 13:34N 31°39' E 121°21'36225034.0
2014-Oct-11 13:33N 37°40' E 121°31'3751473.5
2014-Oct-11 13:17N 31°25' E 121°32'374507.7
2014-Oct-11 12:33N 37°39' E 121°35'3612753.6
2014-Oct-11 12:25N 31°39' E 121°21'1658.2
2014-Oct-11 12:09N 31°25' E 121°32'374635.6
2014-Oct-11 11:33N 37°39' E 121°30'374224472.3
2014-Oct-11 11:33N 31°25' E 121°32'1644.0
2014-Oct-11 11:11N 31°39' E 121°21'361573.9
2014-Oct-11 10:33N 37°39' E 121°25'3745264.5
2014-Oct-11 10:29N 31°25' E 121°32'374388.1
2014-Oct-11 09:31N 37°39' E 121°20'3745074.9
2014-Oct-11 09:27N 31°25' E 121°32'1692.7
2014-Oct-11 09:16N 31°39' E 121°21'1824.6
2014-Oct-11 08:31N 31°22' E 121°30'18 9.3
2014-Oct-11 06:32N 31°39' E 121°21'0 0.0
2014-Oct-11 05:18N 31°39' E 121°21'0 0.0
2014-Oct-11 04:24N 31°39' E 121°21'0 0.0
2014-Oct-11 03:33N 31°39' E 121°21'  
Track history (hours):
 
Tides and Currents Weather Stations Pressure Air Temp Water Temp Dewpoint Dewpoint Depression Visibility Wind Speed Wind Dir Waves Ship Positions

Spaceon02064

Last reported at 2014-Oct-21 03:33 UTC. Time now 2014-Oct-21 03:49 UTC.
Position N 31°18' E 121°34'.

Length 6 m.

Type: Ship. MMSI: 200902064.

Date/timePositionNaut miles runAvg speedWind from/ knotsBaromVisibWave heightAir tempDewpointWater temp
2014-Oct-21 03:33N 31°18' E 121°34'0 0.0
2014-Oct-21 02:27N 31°18' E 121°34'0 0.0
2014-Oct-21 01:33N 31°18' E 121°34'62383.5
2014-Oct-21 01:23N 32°02' E 120°43'6271.3
2014-Oct-21 00:31N 31°18' E 121°34'1349.1
2014-Oct-21 00:15N 31°29' E 121°27'1317.7
2014-Oct-20 23:32N 31°18' E 121°34'81540.6
2014-Oct-20 23:31N 31°25' E 121°31'7 6.5
2014-Oct-20 22:30N 31°19' E 121°34'2 3.8
2014-Oct-20 22:05N 31°18' E 121°34'0 0.0
2014-Oct-20 20:10N 31°18' E 121°34'0 0.0
2014-Oct-20 18:28N 31°18' E 121°34'0 0.0
2014-Oct-20 17:04N 31°18' E 121°34'0 0.1
2014-Oct-20 16:32N 31°18' E 121°34'0 0.0
2014-Oct-20 15:32N 31°18' E 121°34'62731.5
2014-Oct-20 15:27N 32°04' E 120°45'6256.7
2014-Oct-20 14:22N 31°18' E 121°34'62386.0
2014-Oct-20 14:12N 32°04' E 120°45'6295.3
2014-Oct-20 13:33N 31°18' E 121°34'0 0.0
2014-Oct-20 12:22N 31°18' E 121°34'0 0.1
2014-Oct-20 11:33N 31°18' E 121°34'0 0.0
2014-Oct-20 10:14N 31°18' E 121°34'1012.0
2014-Oct-20 09:24N 31°27' E 121°30'1037.8
2014-Oct-20 09:08N 31°18' E 121°34'610.2
2014-Oct-20 08:31N 31°23' E 121°30'4223359.3
2014-Oct-20 08:24N 24°47' E 118°46'417207.9
2014-Oct-20 06:23N 31°17' E 121°34'0 0.0
2014-Oct-20 04:12N 31°17' E 121°34'0 0.0
2014-Oct-20 03:22N 31°17' E 121°34'0 0.0
2014-Oct-20 02:32N 31°17' E 121°34'0 0.0
2014-Oct-20 01:16N 31°17' E 121°34'0 0.0
2014-Oct-20 00:08N 31°17' E 121°34'1220.4
2014-Oct-19 23:33N 31°28' E 121°28'5 4.7
2014-Oct-19 22:33N 31°23' E 121°30'7 6.7
2014-Oct-19 21:33N 31°17' E 121°34'386120.4
2014-Oct-19 18:21N 37°43' E 121°14'2 2.1
2014-Oct-19 17:33N 37°42' E 121°15'3451867.3
2014-Oct-19 17:22N 31°60' E 120°23'344423.3
2014-Oct-19 16:33N 37°41' E 121°19'34143819.5
2014-Oct-19 16:33N 32°02' E 120°28'340339.8
2014-Oct-19 15:33N 37°40' E 121°24'4 3.5
2014-Oct-19 14:33N 37°39' E 121°28'3 3.3
2014-Oct-19 13:32N 37°40' E 121°32'2 2.2
2014-Oct-19 12:33N 37°42' E 121°31'4 4.2
2014-Oct-19 11:31N 37°46' E 121°28'0 0.4
2014-Oct-19 10:33N 37°46' E 121°28'9 8.8
2014-Oct-19 09:33N 37°39' E 121°21'9 9.3
2014-Oct-19 08:33N 37°42' E 121°10'3851433.1
2014-Oct-19 08:17N 31°17' E 121°34'385470.8
2014-Oct-19 07:28N 37°42' E 121°09'385420.9
2014-Oct-19 06:33N 31°17' E 121°34'2 2.4
2014-Oct-19 05:33N 31°19' E 121°33'5 4.7
2014-Oct-19 04:33N 31°23' E 121°30'6 6.0
2014-Oct-19 03:29N 31°22' E 121°38'3436.8
2014-Oct-19 02:33N 31°44' E 121°06'35884.3
2014-Oct-18 22:19N 37°42' E 121°09'0 0.0
2014-Oct-18 21:18N 37°42' E 121°09'5 6.0
2014-Oct-18 20:32N 37°42' E 121°15'3 3.2
2014-Oct-18 19:33N 37°41' E 121°18'3 3.3
2014-Oct-18 18:33N 37°41' E 121°22'3 3.3
2014-Oct-18 17:33N 37°40' E 121°26'3 2.8
2014-Oct-18 16:33N 37°41' E 121°29'4 3.9
2014-Oct-18 15:32N 37°45' E 121°29'6 5.7
2014-Oct-18 14:33N 37°51' E 121°28'3 2.8
2014-Oct-18 13:30N 37°49' E 121°31'3 3.5
2014-Oct-18 12:31N 37°48' E 121°35'1 0.7
2014-Oct-18 11:33N 37°48' E 121°35'3936905.3
2014-Oct-18 11:30N 31°14' E 121°29'393412.9
2014-Oct-18 10:33N 37°48' E 121°30'3921577.0
2014-Oct-18 10:18N 31°15' E 121°33'392528.0
2014-Oct-18 09:33N 37°48' E 121°25'3911021.4
2014-Oct-18 09:10N 31°17' E 121°34'390623.4
2014-Oct-18 08:33N 37°47' E 121°18'9 9.2
2014-Oct-18 07:33N 37°42' E 121°09'3851713.5
2014-Oct-18 07:19N 31°17' E 121°34'4 0.5
2014-Oct-18 00:05N 31°15' E 121°31'388148.7
2014-Oct-17 21:29N 37°42' E 121°10'6 6.6
2014-Oct-17 20:30N 37°45' E 121°18'3 3.6
2014-Oct-17 19:33N 37°44' E 121°22'2 1.5
2014-Oct-17 18:33N 37°42' E 121°23'3 3.5
2014-Oct-17 17:33N 37°41' E 121°27'2 2.4
2014-Oct-17 16:33N 37°41' E 121°24'2 1.7
2014-Oct-17 15:33N 37°41' E 121°26'1 0.5
2014-Oct-17 14:33N 37°40' E 121°27'1 0.5
2014-Oct-17 13:34N 37°40' E 121°27'3 2.8
2014-Oct-17 12:33N 37°40' E 121°24'3 3.3
2014-Oct-17 11:34N 37°38' E 121°27'1 0.7
2014-Oct-17 10:33N 37°38' E 121°28'7 6.9
2014-Oct-17 09:34N 37°40' E 121°20'9 8.1
2014-Oct-17 08:27N 37°42' E 121°09'34048.4
2014-Oct-17 01:26N 32°02' E 120°44'34053.5
2014-Oct-16 19:04N 37°42' E 121°09'3 5.0
2014-Oct-16 18:27N 37°43' E 121°12'3 3.1
2014-Oct-16 17:33N 37°43' E 121°15'3 3.0
2014-Oct-16 16:33N 37°42' E 121°19'3 3.1
2014-Oct-16 15:33N 37°41' E 121°23'3 3.0
2014-Oct-16 14:33N 37°40' E 121°26'3 3.1
2014-Oct-16 13:33N 37°40' E 121°30'3 3.1
2014-Oct-16 12:33N 37°39' E 121°34'1 1.2
2014-Oct-16 11:33N 37°39' E 121°33'4 4.0
2014-Oct-16 10:33N 37°39' E 121°28'47215873.9
2014-Oct-16 10:31N 29°48' E 122°05'475477.7
2014-Oct-16 09:32N 37°42' E 121°23'3611183.7
2014-Oct-16 09:13N 31°41' E 121°11'361538.8
2014-Oct-16 08:33N 37°42' E 121°11'4655309.4
2014-Oct-16 08:28N 29°59' E 122°02'465477.7
2014-Oct-16 07:30N 37°42' E 121°09'0 0.0
2014-Oct-16 06:15N 37°42' E 121°09'0 0.0
2014-Oct-16 05:12N 37°42' E 121°09'0 0.0
2014-Oct-16 04:33N 37°42' E 121°09'38748.3
2014-Oct-15 20:32N 31°15' E 121°30'5 4.1
2014-Oct-15 19:13N 31°20' E 121°33'3 4.6
2014-Oct-15 18:32N 31°21' E 121°30'4 3.4
2014-Oct-15 17:28N 31°25' E 121°30'5 5.4
2014-Oct-15 16:32N 31°28' E 121°26'17 2.3
2014-Oct-15 09:29N 31°40' E 121°12'6 5.8
2014-Oct-15 08:22N 31°44' E 121°06'36 7.4
2014-Oct-15 03:32N 32°02' E 120°30'8 7.8
2014-Oct-15 02:32N 31°59' E 120°21'34854.9
2014-Oct-14 20:12N 37°44' E 121°12'2 2.0
2014-Oct-14 19:26N 37°45' E 121°14'3 3.9
2014-Oct-14 18:32N 37°44' E 121°18'4 3.7
2014-Oct-14 17:33N 37°43' E 121°22'4 3.6
2014-Oct-14 16:33N 37°42' E 121°27'3 3.3
2014-Oct-14 15:33N 37°41' E 121°31'343340.6
2014-Oct-14 14:33N 32°02' E 120°27'34331654.9
2014-Oct-14 14:32N 37°40' E 121°35'4 3.5
2014-Oct-14 13:32N 37°40' E 121°39'4 3.8
2014-Oct-14 12:33N 37°40' E 121°35'4 3.9
2014-Oct-14 11:33N 37°41' E 121°30'4 3.9
2014-Oct-14 10:33N 37°41' E 121°25'4 3.8
2014-Oct-14 09:31N 37°41' E 121°20'9 8.2
2014-Oct-14 08:27N 37°42' E 121°09'373123.6
2014-Oct-14 05:26N 31°29' E 121°27'4 4.1
2014-Oct-14 04:29N 31°26' E 121°31'1 1.3
2014-Oct-14 03:33N 31°25' E 121°32'4 3.5
2014-Oct-14 02:32N 31°22' E 121°30'6 5.9
2014-Oct-14 01:33N 31°17' E 121°34'5 4.8
2014-Oct-14 00:31N 31°13' E 121°30'413129.3
2014-Oct-13 21:20N 24°47' E 118°46'0 0.2
2014-Oct-13 20:26N 24°47' E 118°46'11 1.6
2014-Oct-13 13:31N 24°47' E 118°58'42015.5
2014-Oct-12 10:26N 31°21' E 121°43'6968.8
2014-Oct-12 09:26N 32°01' E 120°37'6966.6
2014-Oct-12 08:24N 31°21' E 121°43'3 0.4
2014-Oct-12 01:31N 31°22' E 121°40'8 8.2
2014-Oct-12 00:33N 31°24' E 121°32'7165.3
2014-Oct-11 23:29N 31°59' E 120°19'60530.0
2014-Oct-11 23:22N 31°32' E 121°23'5667.6
2014-Oct-11 22:32N 32°02' E 120°27'8 7.8
2014-Oct-11 21:32N 32°00' E 120°36'44221.6
2014-Oct-11 21:20N 31°39' E 121°21'364466.2
2014-Oct-11 20:33N 37°42' E 121°11'364365.8
2014-Oct-11 19:34N 31°39' E 121°21'36425701.5
2014-Oct-11 19:33N 37°43' E 121°20'1 1.2
2014-Oct-11 18:33N 37°43' E 121°21'364327634.6
2014-Oct-11 18:33N 31°39' E 121°21'1882.2
2014-Oct-11 18:20N 31°47' E 121°01'1823.5
2014-Oct-11 17:33N 31°39' E 121°21'36346659.0
2014-Oct-11 17:32N 37°41' E 121°26'4 3.9
2014-Oct-11 16:33N 37°40' E 121°31'3 3.5
2014-Oct-11 15:33N 37°38' E 121°35'3603264.6
2014-Oct-11 15:27N 31°39' E 121°21'361405.5
2014-Oct-11 14:33N 37°40' E 121°33'3615581.1
2014-Oct-11 14:29N 31°39' E 121°21'0 0.0
2014-Oct-11 13:34N 31°39' E 121°21'36225034.0
2014-Oct-11 13:33N 37°40' E 121°31'3751473.5
2014-Oct-11 13:17N 31°25' E 121°32'374507.7
2014-Oct-11 12:33N 37°39' E 121°35'3612753.6
2014-Oct-11 12:25N 31°39' E 121°21'1658.2
2014-Oct-11 12:09N 31°25' E 121°32'374635.6
2014-Oct-11 11:33N 37°39' E 121°30'374224472.3
2014-Oct-11 11:33N 31°25' E 121°32'1644.0
2014-Oct-11 11:11N 31°39' E 121°21'361573.9
2014-Oct-11 10:33N 37°39' E 121°25'3745264.5
2014-Oct-11 10:29N 31°25' E 121°32'374388.1
2014-Oct-11 09:31N 37°39' E 121°20'3745074.9
2014-Oct-11 09:27N 31°25' E 121°32'1692.7
2014-Oct-11 09:16N 31°39' E 121°21'1824.6
2014-Oct-11 08:31N 31°22' E 121°30'18 9.3
2014-Oct-11 06:32N 31°39' E 121°21'0 0.0
2014-Oct-11 05:18N 31°39' E 121°21'0 0.0
2014-Oct-11 04:24N 31°39' E 121°21'0 0.0
2014-Oct-11 03:33N 31°39' E 121°21'  

Dump ship's entire track history